Marlborough, Massachusetts
Current Conditions -  °F | °C
As of 6:56 AM on Monday 26 Jan 2015 (Local Time) from KBED Reporting Station
Clear Clear  
Wind Chill: -3°   Ceiling: Unl
Heat Index:   Visibility: 10mi
Dew Point: -4°   Wind: 7mph
Humidity: 58%   Direction: 20°NNE
Pressure: 30.14"   Gusts: NA
Location:  42.35°N, 71.55°W
Report Text: KBED 261156Z 02006KT 10SM CLR M13/M20 A3014 RMK AO2 SLP223 T11331200 11106 21139 51015
Loading
Personal Weather Stations






























Interactive Weather Map New forecast layout! Learn more

10-Day Weather Forecast

Advertisements
Track Severe Weather on mobile